Time;durP1;ratioP1;P1;durP2;ratioP2;P2;SDS_P1;SDS_P2;PMS_P1;PMS_P2;Temp;Humidity;BMP_temperature;BMP_pressure;BME280_temperature;BME280_humidity;BME280_pressure;Samples;Min_cycle;Max_cycle;Signal;HPM_P1;HPM_P2
2021/08/09 00:00:36;;;;;;;3.08;1.58;;;;;;;12.89;97.23;96107.78;5017733;28;20432;-75
2021/08/09 00:03:02;;;;;;;3.05;1.60;;;;;;;13.00;95.97;96102.69;5015765;28;20424;-75
2021/08/09 00:05:29;;;;;;;3.90;1.73;;;;;;;13.05;95.60;96109.28;5017022;28;20413;-75
2021/08/09 00:07:55;;;;;;;5.50;1.60;;;;;;;12.98;95.66;96105.41;5017312;28;20793;-75
2021/08/09 00:10:20;;;;;;;4.87;1.50;;;;;;;12.68;97.79;96105.69;5032346;28;20420;-75
2021/08/09 00:12:46;;;;;;;4.00;1.50;;;;;;;12.47;99.44;96102.72;5017752;28;20412;-75
2021/08/09 00:15:12;;;;;;;2.42;1.60;;;;;;;12.42;100.00;96102.19;5015876;28;20774;-74
2021/08/09 00:17:37;;;;;;;2.85;1.73;;;;;;;12.43;100.00;96109.03;5015810;28;20431;-75
2021/08/09 00:20:04;;;;;;;2.00;1.30;;;;;;;12.51;99.58;96104.19;5015672;28;20503;-77
2021/08/09 00:22:31;;;;;;;4.22;1.80;;;;;;;12.62;98.82;96102.66;5016725;28;20428;-76
2021/08/09 00:24:56;;;;;;;6.85;1.90;;;;;;;12.45;99.98;96101.97;5013685;28;20425;-77
2021/08/09 00:27:21;;;;;;;3.75;1.60;;;;;;;12.66;98.50;96093.72;5013539;28;20516;-76
2021/08/09 00:29:47;;;;;;;3.22;1.88;;;;;;;12.71;97.92;96105.47;5013714;28;20448;-76
2021/08/09 00:32:12;;;;;;;6.13;2.00;;;;;;;12.72;98.03;96103.69;5012249;28;20471;-77
2021/08/09 00:34:38;;;;;;;4.10;1.70;;;;;;;12.70;97.63;96090.81;5013249;28;20467;-77
2021/08/09 00:37:04;;;;;;;2.77;1.33;;;;;;;12.58;97.67;96102.84;5013556;28;20409;-77
2021/08/09 00:39:31;;;;;;;8.63;2.07;;;;;;;12.49;99.43;96098.25;5012385;28;20425;-77
2021/08/09 00:41:56;;;;;;;4.10;1.60;;;;;;;12.34;99.72;96099.22;5013599;28;20413;-77
2021/08/09 00:44:21;;;;;;;2.87;1.60;;;;;;;12.40;99.87;96106.66;5013111;28;20428;-77
2021/08/09 00:46:47;;;;;;;2.40;1.47;;;;;;;12.48;99.15;96095.75;5011807;28;20428;-77
2021/08/09 00:49:12;;;;;;;3.10;1.57;;;;;;;12.19;100.00;96102.81;5012233;28;20460;-77
2021/08/09 00:51:38;;;;;;;2.58;1.58;;;;;;;12.05;100.00;96093.31;5013324;28;20423;-77
2021/08/09 00:54:04;;;;;;;5.10;2.10;;;;;;;11.92;100.00;96095.84;5013074;28;20791;-77
2021/08/09 00:56:31;;;;;;;6.50;1.50;;;;;;;11.90;100.00;96089.91;5013178;28;20427;-77
2021/08/09 00:58:58;;;;;;;3.20;1.90;;;;;;;11.93;100.00;96097.50;5013197;28;20443;-77
2021/08/09 01:01:23;;;;;;;3.60;1.48;;;;;;;12.10;100.00;96099.88;5013107;28;20421;-77
2021/08/09 01:03:49;;;;;;;2.90;1.55;;;;;;;12.18;100.00;96103.75;5012942;28;20431;-77
2021/08/09 01:06:15;;;;;;;2.53;1.40;;;;;;;12.26;100.00;96098.91;5012752;28;20598;-77
2021/08/09 01:08:50;;;;;;;2.58;1.45;;;;;;;12.02;100.00;96091.75;5012932;28;20448;-77
2021/08/09 01:11:21;;;;;;;2.38;1.20;;;;;;;12.07;100.00;96088.84;5013309;28;20417;-77
2021/08/09 01:13:53;;;;;;;8.88;1.50;;;;;;;12.14;100.00;96095.34;5027978;28;20425;-77
2021/08/09 01:16:22;;;;;;;3.30;1.42;;;;;;;11.92;100.00;96090.66;5011224;28;20423;-77
2021/08/09 01:18:50;;;;;;;3.08;1.52;;;;;;;11.82;100.00;96087.78;5013315;28;20819;-77
2021/08/09 01:21:19;;;;;;;2.70;1.65;;;;;;;11.68;100.00;96100.78;5042724;28;20418;-77
2021/08/09 01:23:51;;;;;;;3.50;1.75;;;;;;;11.69;100.00;96097.25;5042778;28;20430;-77
2021/08/09 01:26:24;;;;;;;2.22;1.45;;;;;;;11.91;100.00;96090.78;5032156;28;20455;-77
2021/08/09 01:28:54;;;;;;;3.13;1.63;;;;;;;11.85;100.00;96089.38;5015861;28;20912;-77
2021/08/09 01:31:20;;;;;;;2.90;1.50;;;;;;;11.99;100.00;96098.91;5012291;28;20439;-77
2021/08/09 01:33:46;;;;;;;3.03;1.58;;;;;;;11.94;100.00;96093.16;5015883;28;20458;-77
2021/08/09 01:36:12;;;;;;;3.38;1.60;;;;;;;12.01;100.00;96091.84;5034704;28;20521;-77
2021/08/09 01:38:40;;;;;;;2.25;1.58;;;;;;;12.00;100.00;96101.38;5021500;28;20433;-77
2021/08/09 01:41:06;;;;;;;3.87;1.50;;;;;;;12.11;99.82;96101.53;5032215;28;20487;-77
2021/08/09 01:43:34;;;;;;;1.90;1.30;;;;;;;12.21;99.86;96113.97;5049327;28;20421;-77
2021/08/09 01:46:02;;;;;;;2.92;1.52;;;;;;;12.25;99.11;96118.03;5031676;28;20472;-77
2021/08/09 01:48:28;;;;;;;1.90;1.23;;;;;;;12.06;100.00;96111.41;5026872;28;20413;-77
2021/08/09 01:50:55;;;;;;;2.53;1.30;;;;;;;12.10;99.93;96114.63;5010998;28;20427;-77
2021/08/09 01:53:20;;;;;;;2.42;1.30;;;;;;;12.14;99.37;96108.31;5012050;28;20448;-77
2021/08/09 01:55:46;;;;;;;1.95;1.30;;;;;;;12.14;99.28;96115.28;5018671;28;20419;-77
2021/08/09 01:58:12;;;;;;;2.03;1.20;;;;;;;12.01;99.83;96102.22;5041796;28;20440;-77
2021/08/09 02:00:38;;;;;;;2.20;1.30;;;;;;;12.10;99.12;96114.63;5051831;28;20467;-77
2021/08/09 02:03:05;;;;;;;3.57;1.20;;;;;;;12.17;96.59;96110.72;5051675;28;20492;-77
2021/08/09 02:05:30;;;;;;;2.85;1.20;;;;;;;12.05;96.26;96119.25;5050206;28;20448;-77
2021/08/09 02:07:56;;;;;;;4.00;1.40;;;;;;;12.00;94.90;96116.13;5051413;28;20417;-77
2021/08/09 02:10:24;;;;;;;2.63;1.27;;;;;;;11.93;94.11;96109.66;5051367;28;20406;-77
2021/08/09 02:12:56;;;;;;;3.17;1.30;;;;;;;11.82;95.51;96116.31;5050164;28;20424;-77
2021/08/09 02:15:30;;;;;;;2.28;1.27;;;;;;;11.70;97.36;96114.50;5051121;28;20411;-77
2021/08/09 02:18:03;;;;;;;3.92;1.33;;;;;;;11.80;95.87;96109.56;5051424;28;20455;-77
2021/08/09 02:20:34;;;;;;;3.03;1.30;;;;;;;11.62;97.55;96108.94;5051287;28;20467;-77
2021/08/09 02:23:03;;;;;;;2.28;1.20;;;;;;;11.50;100.00;96120.09;5050047;28;20791;-75
2021/08/09 02:25:32;;;;;;;2.77;1.17;;;;;;;11.50;100.00;96117.50;5049908;28;20425;-75
2021/08/09 02:28:03;;;;;;;2.30;1.40;;;;;;;11.60;100.00;96116.81;5049871;28;20413;-75
2021/08/09 02:30:28;;;;;;;3.58;1.60;;;;;;;11.67;98.50;96117.28;5051128;28;20409;-75
2021/08/09 02:32:58;;;;;;;1.98;1.27;;;;;;;11.67;98.16;96121.63;5051104;28;20409;-76
2021/08/09 02:35:26;;;;;;;2.50;1.40;;;;;;;11.70;97.44;96118.84;5050739;28;20463;-77
2021/08/09 02:37:54;;;;;;;4.28;1.55;;;;;;;11.62;97.53;96116.72;5051152;28;20432;-77
2021/08/09 02:40:21;;;;;;;3.10;1.42;;;;;;;11.84;93.78;96113.69;5051142;28;20417;-77
2021/08/09 02:42:47;;;;;;;5.32;1.60;;;;;;;11.73;93.63;96122.09;5052430;28;20496;-77
2021/08/09 02:45:13;;;;;;;5.45;1.80;;;;;;;11.50;94.61;96120.09;5051811;28;20425;-77
2021/08/09 02:47:40;;;;;;;3.35;1.45;;;;;;;11.27;98.28;96124.03;5051784;28;20523;-76
2021/08/09 02:50:09;;;;;;;2.58;1.60;;;;;;;11.17;99.92;96128.13;5050695;28;20665;-77
2021/08/09 02:52:37;;;;;;;2.20;1.38;;;;;;;11.16;99.01;96124.69;5050590;28;20786;-76
2021/08/09 02:55:05;;;;;;;5.47;1.80;;;;;;;10.92;100.00;96133.91;5052109;28;20512;-77
2021/08/09 02:57:32;;;;;;;4.47;1.40;;;;;;;11.10;100.00;96127.66;5049772;28;20918;-75
2021/08/09 02:59:58;;;;;;;2.38;1.65;;;;;;;11.23;100.00;96125.97;5051002;28;20752;-77
2021/08/09 03:02:27;;;;;;;2.72;1.60;;;;;;;11.26;100.00;96130.97;5049450;28;20424;-77
2021/08/09 03:04:52;;;;;;;2.55;1.40;;;;;;;11.22;100.00;96128.66;5050578;28;20421;-76
2021/08/09 03:07:19;;;;;;;2.40;1.42;;;;;;;11.23;100.00;96127.75;5050436;28;20411;-77
2021/08/09 03:09:45;;;;;;;2.75;1.50;;;;;;;11.22;100.00;96132.09;5049351;28;20425;-76
2021/08/09 03:12:16;;;;;;;1.83;1.20;;;;;;;11.17;100.00;96134.13;5050592;28;20413;-75
2021/08/09 03:14:42;;;;;;;3.08;1.75;;;;;;;11.04;100.00;96128.00;5050537;28;20409;-75
2021/08/09 03:17:07;;;;;;;2.55;1.55;;;;;;;11.12;100.00;96121.47;5050392;28;20502;-75
2021/08/09 03:19:33;;;;;;;2.63;1.50;;;;;;;11.22;100.00;96121.72;5050473;28;20405;-77
2021/08/09 03:22:00;;;;;;;3.80;1.40;;;;;;;11.19;100.00;96123.66;5050454;28;20780;-76
2021/08/09 03:24:28;;;;;;;4.15;1.85;;;;;;;11.23;100.00;96118.19;5050477;28;20421;-75
2021/08/09 03:26:54;;;;;;;5.60;1.27;;;;;;;11.33;100.00;96115.91;5048985;28;20424;-75
2021/08/09 03:29:21;;;;;;;3.65;1.50;;;;;;;11.23;100.00;96118.19;5050412;28;20429;-75
2021/08/09 03:31:46;;;;;;;1.70;1.10;;;;;;;11.15;100.00;96120.41;5049182;28;20463;-75
2021/08/09 03:34:12;;;;;;;2.80;1.55;;;;;;;11.06;100.00;96116.63;5050220;28;20441;-75
2021/08/09 03:36:41;;;;;;;5.30;1.60;;;;;;;11.09;100.00;96121.63;5048966;28;20402;-75
2021/08/09 03:39:07;;;;;;;4.97;1.65;;;;;;;11.07;100.00;96120.06;5050372;28;20924;-76
2021/08/09 03:41:32;;;;;;;3.90;1.60;;;;;;;11.08;100.00;96119.13;5049069;28;20405;-75
2021/08/09 03:43:58;;;;;;;3.70;1.60;;;;;;;10.86;100.00;96117.81;5048863;28;20417;-75
2021/08/09 03:46:24;;;;;;;3.60;1.70;;;;;;;10.60;100.00;96115.88;5049921;28;20406;-75
2021/08/09 03:48:50;;;;;;;2.00;1.40;;;;;;;10.45;100.00;96108.97;5050337;28;20914;-75
2021/08/09 03:51:15;;;;;;;3.10;1.37;;;;;;;10.39;100.00;96116.19;5048908;28;20425;-76
2021/08/09 03:53:41;;;;;;;5.57;1.48;;;;;;;10.32;100.00;96117.44;5050236;28;20424;-75
2021/08/09 03:56:06;;;;;;;3.45;1.60;;;;;;;10.33;100.00;96113.94;5049839;28;20769;-75
2021/08/09 03:58:32;;;;;;;2.25;1.50;;;;;;;10.46;100.00;96119.25;5048881;28;20418;-75
2021/08/09 04:00:57;;;;;;;4.43;1.67;;;;;;;10.63;100.00;96113.94;5052886;28;20837;-76
2021/08/09 04:03:24;;;;;;;2.77;1.47;;;;;;;10.80;100.00;96117.31;5053868;28;20567;-78
2021/08/09 04:05:49;;;;;;;2.10;1.30;;;;;;;10.89;100.00;96117.59;5052231;28;20989;-75
2021/08/09 04:08:15;;;;;;;3.10;1.30;;;;;;;10.94;100.00;96114.78;5052615;28;20508;-75
2021/08/09 04:10:40;;;;;;;2.37;1.40;;;;;;;11.00;100.00;96123.94;5053983;28;20405;-75
2021/08/09 04:13:06;;;;;;;2.30;1.40;;;;;;;11.03;100.00;96121.16;5053678;28;20488;-75
2021/08/09 04:15:31;;;;;;;2.60;1.30;;;;;;;11.06;100.00;96123.56;5053675;28;20898;-75
2021/08/09 04:17:56;;;;;;;5.65;1.40;;;;;;;10.83;100.00;96130.94;5052353;28;20413;-75
2021/08/09 04:20:23;;;;;;;3.13;1.58;;;;;;;10.80;100.00;96119.91;5053720;28;20420;-76
2021/08/09 04:22:49;;;;;;;3.80;1.60;;;;;;;10.95;100.00;96113.00;5053601;28;20413;-75
2021/08/09 04:25:14;;;;;;;2.67;1.45;;;;;;;11.00;100.00;96108.38;5053169;28;20436;-75
2021/08/09 04:27:40;;;;;;;2.53;1.30;;;;;;;11.08;100.00;96103.56;5053441;28;20413;-76
2021/08/09 04:30:06;;;;;;;1.93;1.10;;;;;;;11.07;99.11;96109.69;5052192;28;20405;-75
2021/08/09 04:32:37;;;;;;;2.63;1.30;;;;;;;10.89;98.03;96107.25;5052225;28;20421;-75
2021/08/09 04:35:03;;;;;;;5.33;1.50;;;;;;;10.81;100.00;96106.84;5053298;28;20496;-75
2021/08/09 04:37:30;;;;;;;2.40;1.30;;;;;;;10.79;100.00;96126.84;5051661;28;20417;-75
2021/08/09 04:39:55;;;;;;;1.65;1.20;;;;;;;10.90;100.00;96123.63;5053321;28;20412;-75
2021/08/09 04:42:20;;;;;;;1.80;1.23;;;;;;;10.99;100.00;96133.47;5053350;28;20405;-76
2021/08/09 04:44:46;;;;;;;2.08;1.17;;;;;;;11.07;100.00;96126.06;5052991;28;20432;-75
2021/08/09 04:47:11;;;;;;;2.83;1.37;;;;;;;11.15;100.00;96121.25;5051733;28;20471;-76
2021/08/09 04:49:37;;;;;;;3.30;1.60;;;;;;;11.18;100.00;96125.44;5053149;28;20921;-76
2021/08/09 04:52:02;;;;;;;2.27;1.30;;;;;;;11.18;100.00;96117.66;5053104;28;20493;-76
2021/08/09 04:54:29;;;;;;;2.43;1.40;;;;;;;11.14;100.00;96116.16;5051708;28;20465;-75
2021/08/09 04:56:55;;;;;;;2.40;1.50;;;;;;;10.92;100.00;96110.59;5052593;28;20405;-75
2021/08/09 04:59:20;;;;;;;4.23;1.30;;;;;;;10.84;100.00;96113.63;5052963;28;20455;-75
2021/08/09 05:01:45;;;;;;;3.20;1.30;;;;;;;10.99;100.00;96127.44;5052835;28;20417;-75
2021/08/09 05:04:11;;;;;;;1.73;1.20;;;;;;;11.10;100.00;96130.25;5051453;28;20479;-76
2021/08/09 05:06:36;;;;;;;3.97;1.30;;;;;;;11.17;100.00;96122.94;5052651;28;20417;-75
2021/08/09 05:09:02;;;;;;;1.15;1.00;;;;;;;11.28;100.00;96130.91;5049477;28;20514;-76
2021/08/09 05:11:29;;;;;;;6.30;1.60;;;;;;;11.00;100.00;96135.13;5026179;28;20418;-76
2021/08/09 05:13:56;;;;;;;6.35;1.60;;;;;;;10.85;100.00;96131.66;5032244;28;20412;-75
2021/08/09 05:16:22;;;;;;;2.20;1.48;;;;;;;10.79;100.00;96129.44;5031027;28;20510;-75
2021/08/09 05:18:48;;;;;;;2.67;1.40;;;;;;;11.02;100.00;96130.69;5032498;28;20494;-75
2021/08/09 05:21:14;;;;;;;2.47;1.30;;;;;;;11.08;100.00;96126.88;5032495;28;20990;-75
2021/08/09 05:23:40;;;;;;;2.38;1.25;;;;;;;11.10;100.00;96125.06;5032517;28;20419;-75
2021/08/09 05:26:05;;;;;;;3.40;1.57;;;;;;;11.08;100.00;96124.31;5031924;28;20457;-75
2021/08/09 05:28:33;;;;;;;2.07;1.70;;;;;;;11.08;100.00;96132.06;5031072;28;20824;-75
2021/08/09 05:30:58;;;;;;;3.55;1.50;;;;;;;11.05;100.00;96138.28;5031077;28;20763;-75
2021/08/09 05:33:24;;;;;;;4.53;1.60;;;;;;;11.04;100.00;96146.16;5032169;28;20461;-75
2021/08/09 05:35:49;;;;;;;3.90;1.50;;;;;;;11.13;100.00;96143.84;5031935;28;20505;-75
2021/08/09 05:38:15;;;;;;;3.73;1.63;;;;;;;11.25;100.00;96131.91;5030911;28;20426;-75
2021/08/09 05:40:40;;;;;;;2.83;1.57;;;;;;;11.28;100.00;96136.94;5017794;28;20791;-75
2021/08/09 05:43:05;;;;;;;4.13;1.60;;;;;;;11.37;100.00;96138.94;5012323;28;20420;-75
2021/08/09 05:45:32;;;;;;;3.97;1.77;;;;;;;11.44;100.00;96143.78;5010746;28;20751;-74
2021/08/09 05:47:58;;;;;;;6.55;1.70;;;;;;;11.42;100.00;96141.28;5012303;28;20447;-74
2021/08/09 05:50:23;;;;;;;2.87;1.70;;;;;;;11.44;100.00;96143.78;5010878;28;20428;-74
2021/08/09 05:52:51;;;;;;;3.23;1.60;;;;;;;11.56;100.00;96141.28;5012008;28;20918;-74
2021/08/09 05:55:17;;;;;;;4.63;1.88;;;;;;;11.47;100.00;96138.41;5011453;28;20479;-74
2021/08/09 05:57:42;;;;;;;5.87;1.50;;;;;;;11.55;100.00;96151.75;5012042;28;20421;-74
2021/08/09 06:00:08;;;;;;;2.43;1.50;;;;;;;11.63;100.00;96146.94;5011987;28;20865;-75
2021/08/09 06:02:41;;;;;;;6.13;1.90;;;;;;;11.70;100.00;96144.78;5010612;28;20834;-75
2021/08/09 06:05:07;;;;;;;2.22;1.58;;;;;;;11.89;100.00;96145.34;5011821;28;20424;-75
2021/08/09 06:07:33;;;;;;;5.63;1.42;;;;;;;12.00;100.00;96149.88;5011639;28;20515;-75
2021/08/09 06:09:58;;;;;;;1.60;1.20;;;;;;;12.11;100.00;96137.06;5019312;28;20534;-74
2021/08/09 06:12:24;;;;;;;3.77;1.43;;;;;;;12.15;100.00;96130.75;5031501;28;20422;-75
2021/08/09 06:14:49;;;;;;;11.20;1.73;;;;;;;12.36;100.00;96131.16;5031417;28;20901;-74
2021/08/09 06:17:14;;;;;;;2.85;1.58;;;;;;;12.53;100.00;96130.03;5031438;28;20776;-76
2021/08/09 06:19:41;;;;;;;2.30;1.48;;;;;;;12.83;98.52;96122.03;5030179;28;20457;-76
2021/08/09 06:22:08;;;;;;;2.75;1.58;;;;;;;12.93;97.69;96127.44;5030071;28;21283;-74
2021/08/09 06:24:33;;;;;;;3.73;1.70;;;;;;;12.93;98.02;96124.84;5031347;28;20609;-76
2021/08/09 06:26:59;;;;;;;2.77;1.60;;;;;;;13.17;97.28;96127.59;5029814;28;20518;-74
2021/08/09 06:29:25;;;;;;;6.95;1.95;;;;;;;13.26;96.69;96122.59;5031413;28;20415;-75
2021/08/09 06:31:50;;;;;;;2.35;1.27;;;;;;;13.26;97.39;96121.78;5031065;28;20411;-75
2021/08/09 06:34:15;;;;;;;3.35;1.58;;;;;;;13.35;96.98;96117.72;5030920;28;20415;-75
2021/08/09 06:36:42;;;;;;;3.47;1.27;;;;;;;13.50;96.43;96120.13;5030947;28;20415;-75
2021/08/09 06:39:10;;;;;;;4.05;1.50;;;;;;;13.84;94.07;96120.38;5029477;28;20411;-75
2021/08/09 06:41:36;;;;;;;2.33;1.40;;;;;;;13.95;94.59;96130.03;5011504;28;20505;-76
2021/08/09 06:44:02;;;;;;;2.15;1.40;;;;;;;14.37;92.84;96127.91;5011051;28;20428;-76
2021/08/09 06:46:28;;;;;;;2.63;1.33;;;;;;;14.62;92.14;96127.81;5010919;28;20479;-76
2021/08/09 06:48:53;;;;;;;2.97;1.42;;;;;;;14.71;89.72;96134.97;5011421;28;20408;-76
2021/08/09 06:51:19;;;;;;;4.33;1.57;;;;;;;14.62;90.47;96133.03;5014894;28;20417;-76
2021/08/09 06:53:45;;;;;;;5.10;1.30;;;;;;;14.88;89.71;96132.91;5030374;28;20415;-76
2021/08/09 06:56:15;;;;;;;3.30;1.70;;;;;;;14.91;87.69;96130.91;5021888;28;20428;-77
2021/08/09 06:58:40;;;;;;;4.88;1.40;;;;;;;15.04;88.63;96136.03;5011070;28;20421;-76
2021/08/09 07:01:06;;;;;;;2.50;1.38;;;;;;;15.41;84.90;96133.25;5029229;28;20434;-77
2021/08/09 07:03:32;;;;;;;3.30;1.50;;;;;;;15.59;86.79;96136.22;5029478;28;20493;-77
2021/08/09 07:05:57;;;;;;;4.30;1.23;;;;;;;16.13;83.47;96141.59;5029134;28;20789;-75
2021/08/09 07:08:23;;;;;;;4.03;1.40;;;;;;;16.32;80.95;96137.50;5027345;28;21279;-75
2021/08/09 07:10:51;;;;;;;2.60;1.40;;;;;;;16.64;79.22;96137.50;5016595;28;20473;-75
2021/08/09 07:13:17;;;;;;;2.60;1.17;;;;;;;16.73;77.90;96136.78;5030663;28;20421;-76
2021/08/09 07:15:43;;;;;;;2.90;1.40;;;;;;;16.65;79.63;96136.56;5030226;28;20497;-75
2021/08/09 07:18:09;;;;;;;2.57;1.20;;;;;;;17.07;78.45;96131.41;5030605;28;20413;-76
2021/08/09 07:20:34;;;;;;;2.93;1.27;;;;;;;17.25;78.03;96129.06;5030430;28;20423;-75
2021/08/09 07:23:00;;;;;;;3.73;1.57;;;;;;;17.23;75.26;96125.72;5029238;28;20418;-76
2021/08/09 07:25:25;;;;;;;2.25;1.25;;;;;;;17.42;77.27;96129.28;5030052;28;20434;-76
2021/08/09 07:27:52;;;;;;;2.67;1.50;;;;;;;17.45;76.53;96130.00;5030463;28;20407;-76
2021/08/09 07:30:18;;;;;;;4.07;1.30;;;;;;;17.62;74.94;96130.22;5030379;28;20414;-76
2021/08/09 07:32:44;;;;;;;4.88;1.35;;;;;;;17.86;74.35;96137.78;5030353;28;20869;-76
2021/08/09 07:35:10;;;;;;;2.88;1.08;;;;;;;17.84;73.33;96136.28;5032096;28;20485;-76
2021/08/09 07:37:36;;;;;;;3.23;1.20;;;;;;;17.93;72.07;96134.66;5034487;28;21031;-76
2021/08/09 07:40:02;;;;;;;3.50;1.58;;;;;;;17.89;71.66;96139.31;5025928;28;20436;-76
2021/08/09 07:42:27;;;;;;;5.07;1.30;;;;;;;17.86;71.75;96140.41;5013915;28;20521;-76
2021/08/09 07:44:56;;;;;;;2.10;1.00;;;;;;;18.03;73.24;96138.13;5013445;28;20504;-76
2021/08/09 07:47:21;;;;;;;2.67;1.23;;;;;;;17.99;71.35;96140.19;5013556;28;20424;-76
2021/08/09 07:49:47;;;;;;;2.63;1.20;;;;;;;18.24;71.50;96138.88;5013627;28;20482;-77
2021/08/09 07:52:14;;;;;;;2.77;1.27;;;;;;;18.47;68.98;96143.91;5014697;28;20420;-76
2021/08/09 07:54:40;;;;;;;1.35;1.00;;;;;;;18.49;68.67;96134.09;5014023;28;20953;-77
2021/08/09 07:57:06;;;;;;;5.82;1.30;;;;;;;18.74;68.50;96141.47;5015011;28;20424;-77
2021/08/09 07:59:32;;;;;;;3.03;1.23;;;;;;;18.77;68.29;96137.75;5014486;28;20425;-72
2021/08/09 08:02:03;;;;;;;4.65;1.17;;;;;;;19.05;66.59;96136.91;5014640;28;20428;-76
2021/08/09 08:04:29;;;;;;;1.73;1.13;;;;;;;19.25;65.82;96131.63;5013289;28;20424;-76
2021/08/09 08:06:55;;;;;;;2.30;1.20;;;;;;;19.42;67.55;96127.44;5014504;28;20479;-78
2021/08/09 08:09:20;;;;;;;4.03;1.27;;;;;;;19.61;65.08;96127.38;5014256;28;20409;-78
2021/08/09 08:11:46;;;;;;;2.53;1.10;;;;;;;19.62;63.50;96121.22;5013084;28;20424;-77
2021/08/09 08:14:12;;;;;;;2.83;1.20;;;;;;;19.02;63.22;96126.69;5014331;28;20898;-77
2021/08/09 08:16:37;;;;;;;2.47;1.30;;;;;;;19.18;62.77;96122.66;5014136;28;20417;-77
2021/08/09 08:19:04;;;;;;;3.13;1.38;;;;;;;19.36;63.25;96122.78;5014185;28;20755;-77
2021/08/09 08:21:30;;;;;;;1.67;1.00;;;;;;;19.03;62.01;96117.84;5014337;28;20830;-77
2021/08/09 08:23:55;;;;;;;2.17;1.17;;;;;;;19.06;62.71;96135.94;5014014;28;20427;-77
2021/08/09 08:26:20;;;;;;;2.47;1.10;;;;;;;19.44;61.28;96125.50;5014098;28;20423;-77
2021/08/09 08:28:46;;;;;;;3.33;1.20;;;;;;;19.44;59.59;96128.16;5014016;28;20515;-76
2021/08/09 08:31:11;;;;;;;2.43;0.97;;;;;;;19.65;59.38;96123.53;5016432;28;20422;-76
2021/08/09 08:33:37;;;;;;;2.40;1.10;;;;;;;19.53;59.91;96122.84;5033135;28;20422;-76
2021/08/09 08:36:04;;;;;;;2.45;1.15;;;;;;;20.02;59.27;96126.16;5034427;28;20449;-76
2021/08/09 08:38:29;;;;;;;1.85;1.20;;;;;;;20.37;59.83;96123.75;5034392;28;20419;-76
2021/08/09 08:40:57;;;;;;;1.90;1.02;;;;;;;20.19;57.26;96121.91;5017614;28;20419;-76
2021/08/09 08:43:25;;;;;;;2.25;1.13;;;;;;;20.77;59.06;96128.63;5013742;28;20447;-76
2021/08/09 08:45:55;;;;;;;2.92;1.27;;;;;;;21.22;54.79;96125.06;5012403;28;20424;-76
2021/08/09 08:48:20;;;;;;;4.05;1.40;;;;;;;21.28;55.21;96124.41;5012552;28;20955;-76
2021/08/09 08:50:46;;;;;;;3.78;1.20;;;;;;;21.17;56.48;96125.53;5012796;28;20520;-73
2021/08/09 08:53:12;;;;;;;2.50;1.43;;;;;;;20.71;56.21;96131.84;5012425;28;20412;-73
2021/08/09 08:55:38;;;;;;;3.75;1.50;;;;;;;20.58;56.77;96123.50;5013829;28;20431;-74
2021/08/09 08:58:03;;;;;;;2.20;1.10;;;;;;;20.60;59.56;96125.00;5012327;28;20906;-73
2021/08/09 09:00:35;;;;;;;2.20;1.00;;;;;;;20.85;56.76;96118.16;5028992;28;20417;-76
2021/08/09 09:03:05;;;;;;;2.10;1.30;;;;;;;20.69;61.46;96128.53;5013485;28;20439;-75
2021/08/09 09:05:33;;;;;;;2.47;1.53;;;;;;;20.54;57.79;96125.59;5013172;28;20432;-73
2021/08/09 09:07:59;;;;;;;3.40;1.20;;;;;;;20.77;60.13;96126.00;5012427;28;20890;-73
2021/08/09 09:10:29;;;;;;;2.20;1.40;;;;;;;20.85;57.15;96128.69;5013653;28;20436;-74
2021/08/09 09:13:09;;;;;;;3.08;1.50;;;;;;;20.46;58.59;96131.56;5012042;28;20425;-75
2021/08/09 09:15:56;;;;;;;5.30;1.47;;;;;;;20.52;59.36;96125.75;5013087;28;20425;-73
2021/08/09 09:18:21;;;;;;;2.38;1.40;;;;;;;20.96;58.09;96132.91;5012841;28;20451;-75
2021/08/09 09:20:47;;;;;;;4.38;1.30;;;;;;;20.97;56.00;96134.56;5012153;28;20425;-77
2021/08/09 09:23:14;;;;;;;2.20;1.30;;;;;;;20.83;55.53;96138.53;5013057;28;20914;-76
2021/08/09 09:25:41;;;;;;;2.28;1.15;;;;;;;21.39;55.74;96137.38;5012253;28;20420;-77
2021/08/09 09:28:24;;;;;;;4.65;1.33;;;;;;;21.39;54.24;96132.09;5011408;28;20431;-76
2021/08/09 09:30:50;;;;;;;7.25;1.10;;;;;;;21.41;56.97;96130.16;5013234;28;20910;-77
2021/08/09 09:33:15;;;;;;;1.53;1.00;;;;;;;21.78;52.57;96129.06;5012677;28;20453;-76
2021/08/09 09:35:41;;;;;;;2.37;1.17;;;;;;;21.84;53.33;96133.72;5011240;28;20436;-76
2021/08/09 09:38:06;;;;;;;2.47;1.45;;;;;;;21.57;52.54;96137.34;5011331;28;20425;-76
2021/08/09 09:40:38;;;;;;;5.10;1.30;;;;;;;20.70;51.79;96131.03;5024943;28;20848;-76
2021/08/09 09:43:14;;;;;;;4.78;1.60;;;;;;;21.02;54.32;96135.78;5032335;28;20415;-77
2021/08/09 09:45:49;;;;;;;2.20;1.23;;;;;;;20.87;53.41;96137.25;5031796;28;20426;-75
2021/08/09 09:48:14;;;;;;;4.68;1.50;;;;;;;20.85;53.83;96141.03;5032340;28;20521;-76
2021/08/09 09:50:42;;;;;;;1.85;1.10;;;;;;;21.01;52.88;96141.16;5032025;28;20498;-76
2021/08/09 09:53:15;;;;;;;3.70;1.20;;;;;;;21.16;52.95;96139.66;5030925;28;20844;-77
2021/08/09 09:55:41;;;;;;;3.13;1.30;;;;;;;21.70;53.31;96152.75;5030628;28;20419;-76
2021/08/09 09:58:07;;;;;;;1.98;1.10;;;;;;;21.53;51.44;96135.16;5031962;28;20411;-77
2021/08/09 10:00:34;;;;;;;3.57;1.23;;;;;;;21.88;52.90;96131.59;5032093;28;20854;-77
2021/08/09 10:02:59;;;;;;;1.73;1.00;;;;;;;22.35;49.36;96136.41;5031869;28;20442;-76
2021/08/09 10:05:25;;;;;;;3.17;1.20;;;;;;;22.19;48.26;96138.00;5029950;28;20976;-77
2021/08/09 10:07:53;;;;;;;4.50;1.30;;;;;;;22.01;48.56;96139.06;5030273;28;20422;-77
2021/08/09 10:10:23;;;;;;;3.15;1.15;;;;;;;22.33;46.75;96141.84;5031091;28;20927;-76
2021/08/09 10:12:49;;;;;;;2.40;1.10;;;;;;;22.32;46.65;96139.38;5031214;28;20423;-76
2021/08/09 10:15:17;;;;;;;1.98;1.20;;;;;;;22.07;47.87;96146.34;5031277;28;20415;-76
2021/08/09 10:17:44;;;;;;;2.40;1.20;;;;;;;21.43;47.95;96140.53;5030040;28;20462;-76
2021/08/09 10:20:11;;;;;;;2.30;1.13;;;;;;;21.49;48.48;96150.47;5030975;28;20418;-76
2021/08/09 10:22:37;;;;;;;4.22;1.30;;;;;;;21.44;49.00;96147.47;5031735;28;20506;-76
2021/08/09 10:25:05;;;;;;;2.50;1.20;;;;;;;21.21;48.99;96150.56;5029869;28;20419;-76
2021/08/09 10:27:51;;;;;;;2.13;1.00;;;;;;;21.23;46.70;96145.13;5031219;28;20423;-76
2021/08/09 10:30:17;;;;;;;2.13;1.17;;;;;;;21.21;47.32;96149.72;5031007;28;20561;-76
2021/08/09 10:32:47;;;;;;;5.13;1.50;;;;;;;21.20;46.70;96141.00;5029863;28;20419;-77
2021/08/09 10:35:55;;;;;;;3.00;1.25;;;;;;;21.68;47.67;96144.97;5030676;28;20423;-76
2021/08/09 10:38:23;;;;;;;2.63;1.08;;;;;;;21.76;47.50;96131.00;5031160;28;20411;-76
2021/08/09 10:41:26;;;;;;;3.83;1.50;;;;;;;21.84;47.31;96140.78;5029538;28;20434;-76
2021/08/09 10:44:20;;;;;;;1.63;0.95;;;;;;;21.93;45.18;96138.03;5030819;28;20492;-76
2021/08/09 10:46:46;;;;;;;3.47;1.23;;;;;;;22.30;45.74;96128.16;5030751;28;20828;-76
2021/08/09 10:49:54;;;;;;;3.83;1.33;;;;;;;22.73;44.73;96140.31;5030855;28;20411;-76
2021/08/09 10:52:39;;;;;;;1.88;1.02;;;;;;;22.45;45.55;96145.03;5030843;28;20419;-76
2021/08/09 10:55:41;;;;;;;2.25;1.20;;;;;;;22.44;44.05;96140.75;5029356;28;20419;-76
2021/08/09 10:58:06;;;;;;;4.20;1.40;;;;;;;22.12;45.40;96138.78;5029593;28;20476;-76
2021/08/09 11:00:53;;;;;;;5.37;1.10;;;;;;;21.87;44.80;96133.38;5030946;28;20505;-76
2021/08/09 11:03:20;;;;;;;3.25;1.20;;;;;;;21.82;46.19;96126.94;5030811;28;20411;-76
2021/08/09 11:05:47;;;;;;;5.95;1.23;;;;;;;21.70;46.14;96132.47;5028909;28;20423;-76
2021/08/09 11:08:30;;;;;;;2.10;1.05;;;;;;;21.42;47.29;96144.97;5030345;28;20426;-76
2021/08/09 11:11:13;;;;;;;2.10;1.20;;;;;;;21.22;47.21;96136.41;5013651;28;20432;-75
2021/08/09 11:14:11;;;;;;;3.60;1.25;;;;;;;21.02;47.72;96130.50;5009666;28;20931;-74
2021/08/09 11:16:36;;;;;;;2.03;1.23;;;;;;;21.49;46.46;96139.91;5010692;28;20448;-75
2021/08/09 11:19:02;;;;;;;2.97;1.47;;;;;;;21.87;44.63;96128.09;5009750;28;20942;-75
2021/08/09 11:21:29;;;;;;;3.20;1.38;;;;;;;21.84;46.08;96136.34;5015682;28;20909;-74
2021/08/09 11:23:54;;;;;;;2.53;1.00;;;;;;;21.95;43.62;96130.81;5028706;28;20434;-74
2021/08/09 11:26:21;;;;;;;2.50;1.00;;;;;;;22.11;44.58;96137.13;5030180;28;20415;-75
2021/08/09 11:28:56;;;;;;;3.45;1.23;;;;;;;22.12;44.28;96144.88;5029453;28;20599;-73
2021/08/09 11:31:22;;;;;;;2.00;1.13;;;;;;;21.92;42.66;96143.47;5030974;28;20414;-72